sensor_id;sensor_type;location;lat;lon;timestamp;P1;durP1;ratioP1;P2;durP2;ratioP2
79480;SDS011;68944;48.262;14.208;2023-04-10T00:01:34;19.77;;;12.15;;
79480;SDS011;68944;48.262;14.208;2023-04-10T00:04:00;21.05;;;12.98;;
79480;SDS011;68944;48.262;14.208;2023-04-10T00:06:30;22.67;;;12.60;;
79480;SDS011;68944;48.262;14.208;2023-04-10T00:08:56;23.88;;;13.15;;
79480;SDS011;68944;48.262;14.208;2023-04-10T00:11:23;27.95;;;16.08;;
79480;SDS011;68944;48.262;14.208;2023-04-10T00:13:51;24.90;;;14.55;;
79480;SDS011;68944;48.262;14.208;2023-04-10T00:16:17;34.92;;;19.52;;
79480;SDS011;68944;48.262;14.208;2023-04-10T00:18:43;28.10;;;15.20;;
79480;SDS011;68944;48.262;14.208;2023-04-10T00:21:09;28.88;;;15.48;;
79480;SDS011;68944;48.262;14.208;2023-04-10T00:23:35;26.17;;;14.10;;
79480;SDS011;68944;48.262;14.208;2023-04-10T00:26:01;23.15;;;14.10;;
79480;SDS011;68944;48.262;14.208;2023-04-10T00:28:26;25.42;;;13.82;;
79480;SDS011;68944;48.262;14.208;2023-04-10T00:30:52;26.40;;;13.68;;
79480;SDS011;68944;48.262;14.208;2023-04-10T00:33:17;27.05;;;14.90;;
79480;SDS011;68944;48.262;14.208;2023-04-10T00:35:43;28.42;;;14.85;;
79480;SDS011;68944;48.262;14.208;2023-04-10T00:38:08;27.45;;;14.45;;
79480;SDS011;68944;48.262;14.208;2023-04-10T00:40:34;32.28;;;17.00;;
79480;SDS011;68944;48.262;14.208;2023-04-10T00:42:59;27.52;;;15.93;;
79480;SDS011;68944;48.262;14.208;2023-04-10T00:45:25;33.70;;;17.38;;
79480;SDS011;68944;48.262;14.208;2023-04-10T00:47:51;35.03;;;18.45;;
79480;SDS011;68944;48.262;14.208;2023-04-10T00:50:18;26.02;;;14.63;;
79480;SDS011;68944;48.262;14.208;2023-04-10T00:52:44;26.30;;;14.50;;
79480;SDS011;68944;48.262;14.208;2023-04-10T00:55:10;26.23;;;14.25;;
79480;SDS011;68944;48.262;14.208;2023-04-10T00:57:36;26.90;;;14.75;;
79480;SDS011;68944;48.262;14.208;2023-04-10T01:00:02;27.25;;;14.77;;
79480;SDS011;68944;48.262;14.208;2023-04-10T01:02:29;27.35;;;14.63;;
79480;SDS011;68944;48.262;14.208;2023-04-10T01:04:56;27.60;;;15.68;;
79480;SDS011;68944;48.262;14.208;2023-04-10T01:09:51;27.23;;;14.43;;
79480;SDS011;68944;48.262;14.208;2023-04-10T01:15:15;26.25;;;13.77;;
79480;SDS011;68944;48.262;14.208;2023-04-10T01:20:30;37.45;;;20.38;;
79480;SDS011;68944;48.262;14.208;2023-04-10T01:26:05;31.13;;;14.02;;
79480;SDS011;68944;48.262;14.208;2023-04-10T01:34:06;26.17;;;14.90;;
79480;SDS011;68944;48.262;14.208;2023-04-10T01:36:35;31.50;;;15.52;;
79480;SDS011;68944;48.262;14.208;2023-04-10T01:39:07;28.25;;;13.35;;
79480;SDS011;68944;48.262;14.208;2023-04-10T01:41:34;43.58;;;21.60;;
79480;SDS011;68944;48.262;14.208;2023-04-10T01:44:02;33.47;;;18.02;;
79480;SDS011;68944;48.262;14.208;2023-04-10T01:46:28;44.72;;;23.95;;
79480;SDS011;68944;48.262;14.208;2023-04-10T01:48:56;32.33;;;16.85;;
79480;SDS011;68944;48.262;14.208;2023-04-10T01:51:25;31.55;;;16.20;;
79480;SDS011;68944;48.262;14.208;2023-04-10T01:53:52;29.67;;;16.35;;
79480;SDS011;68944;48.262;14.208;2023-04-10T01:56:22;26.85;;;15.02;;
79480;SDS011;68944;48.262;14.208;2023-04-10T01:58:48;25.02;;;13.80;;
79480;SDS011;68944;48.262;14.208;2023-04-10T02:01:18;25.23;;;13.40;;
79480;SDS011;68944;48.262;14.208;2023-04-10T02:03:47;22.70;;;13.20;;
79480;SDS011;68944;48.262;14.208;2023-04-10T02:14:17;30.25;;;14.68;;
79480;SDS011;68944;48.262;14.208;2023-04-10T02:16:45;27.73;;;15.32;;
79480;SDS011;68944;48.262;14.208;2023-04-10T02:19:12;25.00;;;14.75;;
79480;SDS011;68944;48.262;14.208;2023-04-10T02:21:42;25.27;;;13.90;;
79480;SDS011;68944;48.262;14.208;2023-04-10T02:24:08;31.17;;;16.50;;
79480;SDS011;68944;48.262;14.208;2023-04-10T02:26:43;36.75;;;19.85;;
79480;SDS011;68944;48.262;14.208;2023-04-10T02:29:12;33.50;;;18.52;;
79480;SDS011;68944;48.262;14.208;2023-04-10T02:31:39;42.13;;;22.33;;
79480;SDS011;68944;48.262;14.208;2023-04-10T02:34:05;33.35;;;18.27;;
79480;SDS011;68944;48.262;14.208;2023-04-10T02:36:31;34.22;;;16.65;;
79480;SDS011;68944;48.262;14.208;2023-04-10T02:38:57;27.52;;;14.70;;
79480;SDS011;68944;48.262;14.208;2023-04-10T02:41:24;28.40;;;15.32;;
79480;SDS011;68944;48.262;14.208;2023-04-10T02:43:50;31.70;;;14.57;;
79480;SDS011;68944;48.262;14.208;2023-04-10T02:46:21;28.20;;;15.85;;
79480;SDS011;68944;48.262;14.208;2023-04-10T02:48:47;32.65;;;16.23;;
79480;SDS011;68944;48.262;14.208;2023-04-10T02:51:12;30.55;;;15.73;;
79480;SDS011;68944;48.262;14.208;2023-04-10T02:53:38;31.77;;;14.27;;
79480;SDS011;68944;48.262;14.208;2023-04-10T02:56:04;30.85;;;14.85;;
79480;SDS011;68944;48.262;14.208;2023-04-10T02:58:33;47.75;;;15.77;;
79480;SDS011;68944;48.262;14.208;2023-04-10T03:01:00;30.55;;;15.05;;
79480;SDS011;68944;48.262;14.208;2023-04-10T03:03:35;32.05;;;16.08;;
79480;SDS011;68944;48.262;14.208;2023-04-10T03:06:01;31.45;;;13.90;;
79480;SDS011;68944;48.262;14.208;2023-04-10T03:08:30;28.85;;;14.45;;
79480;SDS011;68944;48.262;14.208;2023-04-10T03:10:55;28.50;;;14.90;;
79480;SDS011;68944;48.262;14.208;2023-04-10T03:13:21;42.55;;;15.45;;
79480;SDS011;68944;48.262;14.208;2023-04-10T03:15:47;104.55;;;17.23;;
79480;SDS011;68944;48.262;14.208;2023-04-10T03:18:13;151.60;;;18.42;;
79480;SDS011;68944;48.262;14.208;2023-04-10T03:20:41;83.88;;;17.40;;
79480;SDS011;68944;48.262;14.208;2023-04-10T03:23:07;225.65;;;21.65;;
79480;SDS011;68944;48.262;14.208;2023-04-10T03:25:32;149.65;;;20.90;;
79480;SDS011;68944;48.262;14.208;2023-04-10T03:27:58;275.20;;;24.48;;
79480;SDS011;68944;48.262;14.208;2023-04-10T03:30:25;295.40;;;27.73;;
79480;SDS011;68944;48.262;14.208;2023-04-10T03:32:51;373.17;;;32.42;;
79480;SDS011;68944;48.262;14.208;2023-04-10T03:35:16;272.17;;;25.25;;
79480;SDS011;68944;48.262;14.208;2023-04-10T03:37:42;410.63;;;30.80;;
79480;SDS011;68944;48.262;14.208;2023-04-10T03:40:08;352.85;;;31.15;;
79480;SDS011;68944;48.262;14.208;2023-04-10T03:42:35;247.85;;;26.17;;
79480;SDS011;68944;48.262;14.208;2023-04-10T03:45:01;149.57;;;23.83;;
79480;SDS011;68944;48.262;14.208;2023-04-10T03:47:29;161.80;;;22.45;;
79480;SDS011;68944;48.262;14.208;2023-04-10T03:49:57;177.18;;;23.35;;
79480;SDS011;68944;48.262;14.208;2023-04-10T03:52:26;118.13;;;19.73;;
79480;SDS011;68944;48.262;14.208;2023-04-10T03:54:53;319.63;;;24.65;;
79480;SDS011;68944;48.262;14.208;2023-04-10T03:57:25;184.57;;;21.50;;
79480;SDS011;68944;48.262;14.208;2023-04-10T03:59:56;74.28;;;18.75;;
79480;SDS011;68944;48.262;14.208;2023-04-10T04:02:21;165.02;;;20.63;;
79480;SDS011;68944;48.262;14.208;2023-04-10T04:04:47;132.25;;;20.50;;
79480;SDS011;68944;48.262;14.208;2023-04-10T04:07:33;100.20;;;20.25;;
79480;SDS011;68944;48.262;14.208;2023-04-10T04:10:21;86.28;;;19.27;;
79480;SDS011;68944;48.262;14.208;2023-04-10T04:13:20;83.07;;;19.00;;
79480;SDS011;68944;48.262;14.208;2023-04-10T04:15:53;132.93;;;21.20;;
79480;SDS011;68944;48.262;14.208;2023-04-10T04:18:35;140.10;;;20.13;;
79480;SDS011;68944;48.262;14.208;2023-04-10T04:21:26;69.43;;;18.00;;
79480;SDS011;68944;48.262;14.208;2023-04-10T04:24:10;67.80;;;18.83;;
79480;SDS011;68944;48.262;14.208;2023-04-10T04:26:56;139.00;;;20.33;;
79480;SDS011;68944;48.262;14.208;2023-04-10T04:29:45;47.13;;;17.67;;
79480;SDS011;68944;48.262;14.208;2023-04-10T04:32:29;67.68;;;20.13;;
79480;SDS011;68944;48.262;14.208;2023-04-10T04:35:01;64.68;;;19.63;;
79480;SDS011;68944;48.262;14.208;2023-04-10T04:37:50;43.47;;;18.25;;
79480;SDS011;68944;48.262;14.208;2023-04-10T04:40:30;73.80;;;18.55;;
79480;SDS011;68944;48.262;14.208;2023-04-10T04:43:05;45.55;;;19.63;;
79480;SDS011;68944;48.262;14.208;2023-04-10T04:46:02;58.40;;;19.02;;
79480;SDS011;68944;48.262;14.208;2023-04-10T04:48:57;74.20;;;19.17;;
79480;SDS011;68944;48.262;14.208;2023-04-10T04:51:30;45.67;;;19.15;;
79480;SDS011;68944;48.262;14.208;2023-04-10T04:54:21;46.97;;;18.85;;
79480;SDS011;68944;48.262;14.208;2023-04-10T04:56:59;48.72;;;19.20;;
79480;SDS011;68944;48.262;14.208;2023-04-10T04:59:44;49.20;;;21.20;;
79480;SDS011;68944;48.262;14.208;2023-04-10T05:02:32;45.25;;;19.10;;
79480;SDS011;68944;48.262;14.208;2023-04-10T05:05:07;46.42;;;18.83;;
79480;SDS011;68944;48.262;14.208;2023-04-10T05:07:53;50.28;;;20.15;;
79480;SDS011;68944;48.262;14.208;2023-04-10T05:10:37;47.72;;;18.88;;
79480;SDS011;68944;48.262;14.208;2023-04-10T05:13:08;46.80;;;19.75;;
79480;SDS011;68944;48.262;14.208;2023-04-10T05:15:53;39.72;;;18.25;;
79480;SDS011;68944;48.262;14.208;2023-04-10T05:18:48;50.08;;;20.52;;
79480;SDS011;68944;48.262;14.208;2023-04-10T05:21:21;39.42;;;17.70;;
79480;SDS011;68944;48.262;14.208;2023-04-10T05:24:02;35.25;;;16.48;;
79480;SDS011;68944;48.262;14.208;2023-04-10T05:26:45;29.52;;;14.77;;
79480;SDS011;68944;48.262;14.208;2023-04-10T05:29:49;28.10;;;14.70;;
79480;SDS011;68944;48.262;14.208;2023-04-10T05:32:33;30.63;;;15.20;;
79480;SDS011;68944;48.262;14.208;2023-04-10T05:35:16;29.65;;;15.32;;
79480;SDS011;68944;48.262;14.208;2023-04-10T05:37:47;32.67;;;16.65;;
79480;SDS011;68944;48.262;14.208;2023-04-10T05:40:35;31.05;;;15.55;;
79480;SDS011;68944;48.262;14.208;2023-04-10T05:43:34;24.10;;;13.60;;
79480;SDS011;68944;48.262;14.208;2023-04-10T05:46:25;28.35;;;14.95;;
79480;SDS011;68944;48.262;14.208;2023-04-10T05:49:04;30.40;;;15.07;;
79480;SDS011;68944;48.262;14.208;2023-04-10T05:51:44;32.53;;;15.20;;
79480;SDS011;68944;48.262;14.208;2023-04-10T05:54:40;29.55;;;15.02;;
79480;SDS011;68944;48.262;14.208;2023-04-10T05:57:24;31.95;;;16.13;;
79480;SDS011;68944;48.262;14.208;2023-04-10T06:00:10;25.92;;;13.60;;
79480;SDS011;68944;48.262;14.208;2023-04-10T06:02:38;26.13;;;13.13;;
79480;SDS011;68944;48.262;14.208;2023-04-10T06:05:06;30.23;;;13.63;;
79480;SDS011;68944;48.262;14.208;2023-04-10T06:07:33;28.48;;;14.82;;
79480;SDS011;68944;48.262;14.208;2023-04-10T06:09:59;27.77;;;12.77;;
79480;SDS011;68944;48.262;14.208;2023-04-10T06:12:25;26.25;;;13.00;;
79480;SDS011;68944;48.262;14.208;2023-04-10T06:14:50;27.67;;;13.90;;
79480;SDS011;68944;48.262;14.208;2023-04-10T06:17:19;30.88;;;13.95;;
79480;SDS011;68944;48.262;14.208;2023-04-10T06:19:49;29.13;;;14.25;;
79480;SDS011;68944;48.262;14.208;2023-04-10T06:22:16;26.45;;;13.75;;
79480;SDS011;68944;48.262;14.208;2023-04-10T06:24:42;33.05;;;16.27;;
79480;SDS011;68944;48.262;14.208;2023-04-10T06:27:08;37.00;;;16.80;;
79480;SDS011;68944;48.262;14.208;2023-04-10T06:29:33;39.92;;;18.13;;
79480;SDS011;68944;48.262;14.208;2023-04-10T06:31:59;42.63;;;19.20;;
79480;SDS011;68944;48.262;14.208;2023-04-10T06:34:27;51.38;;;21.77;;
79480;SDS011;68944;48.262;14.208;2023-04-10T06:37:00;70.65;;;23.40;;
79480;SDS011;68944;48.262;14.208;2023-04-10T06:39:25;70.93;;;25.00;;
79480;SDS011;68944;48.262;14.208;2023-04-10T06:41:51;67.85;;;24.20;;
79480;SDS011;68944;48.262;14.208;2023-04-10T06:44:37;90.20;;;28.67;;
79480;SDS011;68944;48.262;14.208;2023-04-10T06:47:02;137.05;;;32.25;;
79480;SDS011;68944;48.262;14.208;2023-04-10T06:49:30;146.40;;;34.83;;
79480;SDS011;68944;48.262;14.208;2023-04-10T06:51:56;123.85;;;33.40;;
79480;SDS011;68944;48.262;14.208;2023-04-10T06:54:21;141.55;;;34.50;;
79480;SDS011;68944;48.262;14.208;2023-04-10T06:56:47;99.38;;;29.08;;
79480;SDS011;68944;48.262;14.208;2023-04-10T06:59:12;79.55;;;25.50;;
79480;SDS011;68944;48.262;14.208;2023-04-10T07:01:38;56.17;;;21.92;;
79480;SDS011;68944;48.262;14.208;2023-04-10T07:04:03;59.60;;;21.35;;
79480;SDS011;68944;48.262;14.208;2023-04-10T07:06:28;78.70;;;24.05;;
79480;SDS011;68944;48.262;14.208;2023-04-10T07:08:55;85.68;;;23.88;;
79480;SDS011;68944;48.262;14.208;2023-04-10T07:11:20;88.38;;;27.35;;
79480;SDS011;68944;48.262;14.208;2023-04-10T07:13:46;93.68;;;26.45;;
79480;SDS011;68944;48.262;14.208;2023-04-10T07:16:11;89.32;;;26.80;;
79480;SDS011;68944;48.262;14.208;2023-04-10T07:18:37;87.80;;;28.88;;
79480;SDS011;68944;48.262;14.208;2023-04-10T07:21:09;89.65;;;27.42;;
79480;SDS011;68944;48.262;14.208;2023-04-10T07:23:38;98.75;;;27.10;;
79480;SDS011;68944;48.262;14.208;2023-04-10T07:26:04;93.25;;;28.20;;
79480;SDS011;68944;48.262;14.208;2023-04-10T07:28:29;96.78;;;28.30;;
79480;SDS011;68944;48.262;14.208;2023-04-10T07:30:57;94.22;;;28.98;;
79480;SDS011;68944;48.262;14.208;2023-04-10T07:33:23;88.60;;;26.85;;
79480;SDS011;68944;48.262;14.208;2023-04-10T07:35:48;86.32;;;26.15;;
79480;SDS011;68944;48.262;14.208;2023-04-10T07:38:14;108.95;;;30.38;;
79480;SDS011;68944;48.262;14.208;2023-04-10T07:40:39;103.43;;;28.92;;
79480;SDS011;68944;48.262;14.208;2023-04-10T07:43:05;92.97;;;28.02;;
79480;SDS011;68944;48.262;14.208;2023-04-10T07:45:30;86.63;;;28.25;;
79480;SDS011;68944;48.262;14.208;2023-04-10T07:47:56;83.15;;;26.15;;
79480;SDS011;68944;48.262;14.208;2023-04-10T07:50:23;70.93;;;25.13;;
79480;SDS011;68944;48.262;14.208;2023-04-10T07:52:49;94.80;;;27.90;;
79480;SDS011;68944;48.262;14.208;2023-04-10T07:55:14;104.75;;;29.88;;
79480;SDS011;68944;48.262;14.208;2023-04-10T07:57:40;96.45;;;29.45;;
79480;SDS011;68944;48.262;14.208;2023-04-10T08:00:06;103.85;;;32.08;;
79480;SDS011;68944;48.262;14.208;2023-04-10T08:02:37;99.40;;;29.05;;
79480;SDS011;68944;48.262;14.208;2023-04-10T08:05:05;90.28;;;30.20;;
79480;SDS011;68944;48.262;14.208;2023-04-10T08:07:31;93.30;;;29.85;;
79480;SDS011;68944;48.262;14.208;2023-04-10T08:09:56;76.25;;;28.40;;
79480;SDS011;68944;48.262;14.208;2023-04-10T08:12:22;89.97;;;28.45;;
79480;SDS011;68944;48.262;14.208;2023-04-10T08:14:47;61.88;;;25.58;;
79480;SDS011;68944;48.262;14.208;2023-04-10T08:17:15;65.65;;;25.95;;
79480;SDS011;68944;48.262;14.208;2023-04-10T08:19:41;60.97;;;26.80;;
79480;SDS011;68944;48.262;14.208;2023-04-10T08:22:06;50.80;;;23.17;;
79480;SDS011;68944;48.262;14.208;2023-04-10T08:24:32;61.30;;;24.23;;
79480;SDS011;68944;48.262;14.208;2023-04-10T08:26:58;59.80;;;26.02;;
79480;SDS011;68944;48.262;14.208;2023-04-10T08:29:23;52.40;;;23.83;;
79480;SDS011;68944;48.262;14.208;2023-04-10T08:31:49;58.63;;;24.55;;
79480;SDS011;68944;48.262;14.208;2023-04-10T08:34:14;60.30;;;27.27;;
79480;SDS011;68944;48.262;14.208;2023-04-10T08:36:40;51.53;;;24.63;;
79480;SDS011;68944;48.262;14.208;2023-04-10T08:39:05;49.78;;;24.75;;
79480;SDS011;68944;48.262;14.208;2023-04-10T08:41:30;52.75;;;24.58;;
79480;SDS011;68944;48.262;14.208;2023-04-10T08:43:56;55.58;;;24.58;;
79480;SDS011;68944;48.262;14.208;2023-04-10T08:46:22;52.95;;;24.90;;
79480;SDS011;68944;48.262;14.208;2023-04-10T08:49:03;49.65;;;21.98;;
79480;SDS011;68944;48.262;14.208;2023-04-10T08:51:41;52.05;;;23.65;;
79480;SDS011;68944;48.262;14.208;2023-04-10T08:54:12;54.10;;;24.48;;
79480;SDS011;68944;48.262;14.208;2023-04-10T08:56:42;52.58;;;24.05;;
79480;SDS011;68944;48.262;14.208;2023-04-10T08:59:14;51.50;;;25.70;;
79480;SDS011;68944;48.262;14.208;2023-04-10T09:01:40;62.90;;;26.63;;
79480;SDS011;68944;48.262;14.208;2023-04-10T09:04:05;63.03;;;27.20;;
79480;SDS011;68944;48.262;14.208;2023-04-10T09:06:31;54.75;;;25.70;;
79480;SDS011;68944;48.262;14.208;2023-04-10T09:08:57;54.65;;;25.70;;
79480;SDS011;68944;48.262;14.208;2023-04-10T09:11:40;59.47;;;26.67;;
79480;SDS011;68944;48.262;14.208;2023-04-10T09:14:28;63.40;;;26.63;;
79480;SDS011;68944;48.262;14.208;2023-04-10T09:19:51;63.50;;;25.83;;
79480;SDS011;68944;48.262;14.208;2023-04-10T09:22:27;57.20;;;24.13;;
79480;SDS011;68944;48.262;14.208;2023-04-10T09:24:55;55.95;;;24.48;;
79480;SDS011;68944;48.262;14.208;2023-04-10T09:27:27;56.70;;;26.33;;
79480;SDS011;68944;48.262;14.208;2023-04-10T09:29:59;53.03;;;26.50;;
79480;SDS011;68944;48.262;14.208;2023-04-10T09:32:35;54.50;;;24.45;;
79480;SDS011;68944;48.262;14.208;2023-04-10T09:35:01;49.50;;;23.98;;
79480;SDS011;68944;48.262;14.208;2023-04-10T09:37:33;54.70;;;26.52;;
79480;SDS011;68944;48.262;14.208;2023-04-10T09:40:00;49.38;;;25.27;;
79480;SDS011;68944;48.262;14.208;2023-04-10T09:42:33;52.10;;;24.42;;
79480;SDS011;68944;48.262;14.208;2023-04-10T09:45:03;42.72;;;24.08;;
79480;SDS011;68944;48.262;14.208;2023-04-10T09:47:30;40.58;;;22.42;;
79480;SDS011;68944;48.262;14.208;2023-04-10T09:49:56;48.25;;;25.00;;
79480;SDS011;68944;48.262;14.208;2023-04-10T09:52:28;44.05;;;23.27;;
79480;SDS011;68944;48.262;14.208;2023-04-10T09:55:05;39.15;;;21.77;;
79480;SDS011;68944;48.262;14.208;2023-04-10T09:57:33;37.55;;;21.63;;
79480;SDS011;68944;48.262;14.208;2023-04-10T10:00:03;36.13;;;20.73;;
79480;SDS011;68944;48.262;14.208;2023-04-10T10:02:36;36.47;;;20.33;;
79480;SDS011;68944;48.262;14.208;2023-04-10T10:05:06;37.92;;;20.15;;
79480;SDS011;68944;48.262;14.208;2023-04-10T10:07:32;35.88;;;18.65;;
79480;SDS011;68944;48.262;14.208;2023-04-10T10:09:58;35.42;;;19.90;;
79480;SDS011;68944;48.262;14.208;2023-04-10T10:12:33;33.63;;;19.40;;
79480;SDS011;68944;48.262;14.208;2023-04-10T10:18:06;29.73;;;16.48;;
79480;SDS011;68944;48.262;14.208;2023-04-10T10:20:33;29.55;;;16.50;;
79480;SDS011;68944;48.262;14.208;2023-04-10T10:23:01;33.72;;;17.05;;
79480;SDS011;68944;48.262;14.208;2023-04-10T10:25:27;31.92;;;17.55;;
79480;SDS011;68944;48.262;14.208;2023-04-10T10:27:55;33.33;;;19.42;;
79480;SDS011;68944;48.262;14.208;2023-04-10T10:30:22;35.42;;;18.65;;
79480;SDS011;68944;48.262;14.208;2023-04-10T10:32:47;28.15;;;15.23;;
79480;SDS011;68944;48.262;14.208;2023-04-10T10:35:14;26.45;;;15.23;;
79480;SDS011;68944;48.262;14.208;2023-04-10T10:37:40;27.50;;;14.90;;
79480;SDS011;68944;48.262;14.208;2023-04-10T10:40:11;30.92;;;15.30;;
79480;SDS011;68944;48.262;14.208;2023-04-10T10:43:09;24.35;;;14.50;;
79480;SDS011;68944;48.262;14.208;2023-04-10T10:45:40;24.08;;;13.77;;
79480;SDS011;68944;48.262;14.208;2023-04-10T10:48:12;24.55;;;13.68;;
79480;SDS011;68944;48.262;14.208;2023-04-10T10:50:54;27.20;;;14.85;;
79480;SDS011;68944;48.262;14.208;2023-04-10T10:53:38;26.65;;;14.88;;
79480;SDS011;68944;48.262;14.208;2023-04-10T10:58:45;24.10;;;14.32;;
79480;SDS011;68944;48.262;14.208;2023-04-10T11:01:22;21.75;;;13.80;;
79480;SDS011;68944;48.262;14.208;2023-04-10T11:03:48;20.15;;;12.50;;
79480;SDS011;68944;48.262;14.208;2023-04-10T11:06:18;22.40;;;13.40;;
79480;SDS011;68944;48.262;14.208;2023-04-10T11:08:48;22.27;;;13.07;;
79480;SDS011;68944;48.262;14.208;2023-04-10T11:11:20;23.42;;;13.70;;
79480;SDS011;68944;48.262;14.208;2023-04-10T11:16:16;22.45;;;12.18;;
79480;SDS011;68944;48.262;14.208;2023-04-10T11:21:14;21.98;;;13.23;;
79480;SDS011;68944;48.262;14.208;2023-04-10T11:28:57;14.70;;;8.90;;
79480;SDS011;68944;48.262;14.208;2023-04-10T11:31:23;14.82;;;8.88;;
79480;SDS011;68944;48.262;14.208;2023-04-10T11:36:18;16.02;;;9.48;;
79480;SDS011;68944;48.262;14.208;2023-04-10T11:38:57;14.23;;;8.68;;
79480;SDS011;68944;48.262;14.208;2023-04-10T11:41:27;13.80;;;8.05;;
79480;SDS011;68944;48.262;14.208;2023-04-10T11:43:55;14.88;;;8.43;;
79480;SDS011;68944;48.262;14.208;2023-04-10T11:46:22;13.13;;;8.38;;
79480;SDS011;68944;48.262;14.208;2023-04-10T11:48:51;13.25;;;8.23;;
79480;SDS011;68944;48.262;14.208;2023-04-10T11:51:20;14.45;;;8.48;;
79480;SDS011;68944;48.262;14.208;2023-04-10T11:53:46;14.13;;;8.63;;
79480;SDS011;68944;48.262;14.208;2023-04-10T11:56:18;12.02;;;6.97;;
79480;SDS011;68944;48.262;14.208;2023-04-10T11:58:50;10.63;;;6.07;;
79480;SDS011;68944;48.262;14.208;2023-04-10T12:01:19;11.85;;;6.57;;
79480;SDS011;68944;48.262;14.208;2023-04-10T12:03:45;10.30;;;6.10;;
79480;SDS011;68944;48.262;14.208;2023-04-10T12:06:11;10.80;;;6.10;;
79480;SDS011;68944;48.262;14.208;2023-04-10T12:08:38;10.35;;;4.70;;
79480;SDS011;68944;48.262;14.208;2023-04-10T12:11:06;9.75;;;5.38;;
79480;SDS011;68944;48.262;14.208;2023-04-10T12:13:35;9.10;;;4.70;;
79480;SDS011;68944;48.262;14.208;2023-04-10T12:16:02;8.13;;;4.40;;
79480;SDS011;68944;48.262;14.208;2023-04-10T12:18:31;9.23;;;4.78;;
79480;SDS011;68944;48.262;14.208;2023-04-10T12:20:56;8.80;;;4.60;;
79480;SDS011;68944;48.262;14.208;2023-04-10T12:23:23;9.13;;;4.43;;
79480;SDS011;68944;48.262;14.208;2023-04-10T12:25:50;9.55;;;5.43;;
79480;SDS011;68944;48.262;14.208;2023-04-10T12:28:20;15.85;;;8.82;;
79480;SDS011;68944;48.262;14.208;2023-04-10T12:30:49;10.05;;;6.03;;
79480;SDS011;68944;48.262;14.208;2023-04-10T12:33:19;8.65;;;4.70;;
79480;SDS011;68944;48.262;14.208;2023-04-10T12:35:46;8.52;;;4.45;;
79480;SDS011;68944;48.262;14.208;2023-04-10T12:38:12;7.88;;;3.90;;
79480;SDS011;68944;48.262;14.208;2023-04-10T12:40:37;7.95;;;4.30;;
79480;SDS011;68944;48.262;14.208;2023-04-10T12:43:05;7.88;;;3.83;;
79480;SDS011;68944;48.262;14.208;2023-04-10T12:45:43;7.97;;;3.58;;
79480;SDS011;68944;48.262;14.208;2023-04-10T12:48:09;7.70;;;3.85;;
79480;SDS011;68944;48.262;14.208;2023-04-10T12:50:45;8.68;;;3.63;;
79480;SDS011;68944;48.262;14.208;2023-04-10T12:53:14;7.78;;;3.85;;
79480;SDS011;68944;48.262;14.208;2023-04-10T12:55:40;12.18;;;6.53;;
79480;SDS011;68944;48.262;14.208;2023-04-10T12:58:16;8.00;;;3.85;;
79480;SDS011;68944;48.262;14.208;2023-04-10T13:00:44;7.15;;;3.63;;
79480;SDS011;68944;48.262;14.208;2023-04-10T13:03:10;7.38;;;3.58;;
79480;SDS011;68944;48.262;14.208;2023-04-10T13:05:36;7.68;;;3.70;;
79480;SDS011;68944;48.262;14.208;2023-04-10T13:08:01;7.72;;;3.47;;
79480;SDS011;68944;48.262;14.208;2023-04-10T13:10:27;6.97;;;3.30;;
79480;SDS011;68944;48.262;14.208;2023-04-10T13:12:53;7.10;;;3.30;;
79480;SDS011;68944;48.262;14.208;2023-04-10T13:15:18;7.38;;;3.60;;
79480;SDS011;68944;48.262;14.208;2023-04-10T13:17:44;7.03;;;3.47;;
79480;SDS011;68944;48.262;14.208;2023-04-10T13:20:09;6.95;;;3.33;;
79480;SDS011;68944;48.262;14.208;2023-04-10T13:22:35;6.80;;;3.42;;
79480;SDS011;68944;48.262;14.208;2023-04-10T13:25:01;6.20;;;3.20;;
79480;SDS011;68944;48.262;14.208;2023-04-10T13:27:27;7.43;;;3.40;;
79480;SDS011;68944;48.262;14.208;2023-04-10T13:29:53;6.57;;;3.33;;
79480;SDS011;68944;48.262;14.208;2023-04-10T13:32:19;6.90;;;3.42;;
79480;SDS011;68944;48.262;14.208;2023-04-10T13:34:45;7.82;;;4.30;;
79480;SDS011;68944;48.262;14.208;2023-04-10T13:37:10;10.18;;;6.18;;
79480;SDS011;68944;48.262;14.208;2023-04-10T13:39:39;7.60;;;3.92;;
79480;SDS011;68944;48.262;14.208;2023-04-10T13:42:05;7.07;;;3.92;;
79480;SDS011;68944;48.262;14.208;2023-04-10T13:44:30;6.10;;;3.08;;
79480;SDS011;68944;48.262;14.208;2023-04-10T13:46:56;5.97;;;2.90;;
79480;SDS011;68944;48.262;14.208;2023-04-10T13:49:24;6.90;;;3.20;;
79480;SDS011;68944;48.262;14.208;2023-04-10T13:51:50;6.20;;;3.00;;
79480;SDS011;68944;48.262;14.208;2023-04-10T13:54:15;6.32;;;3.40;;
79480;SDS011;68944;48.262;14.208;2023-04-10T13:56:41;6.63;;;3.55;;
79480;SDS011;68944;48.262;14.208;2023-04-10T13:59:08;6.60;;;3.15;;
79480;SDS011;68944;48.262;14.208;2023-04-10T14:01:33;6.65;;;3.30;;
79480;SDS011;68944;48.262;14.208;2023-04-10T14:03:59;8.50;;;4.18;;
79480;SDS011;68944;48.262;14.208;2023-04-10T14:06:25;7.97;;;4.22;;
79480;SDS011;68944;48.262;14.208;2023-04-10T14:08:51;6.90;;;3.42;;
79480;SDS011;68944;48.262;14.208;2023-04-10T14:11:16;6.97;;;3.45;;
79480;SDS011;68944;48.262;14.208;2023-04-10T14:13:42;6.25;;;3.15;;
79480;SDS011;68944;48.262;14.208;2023-04-10T14:16:07;11.02;;;6.28;;
79480;SDS011;68944;48.262;14.208;2023-04-10T14:18:33;8.18;;;3.83;;
79480;SDS011;68944;48.262;14.208;2023-04-10T14:21:00;6.90;;;3.50;;
79480;SDS011;68944;48.262;14.208;2023-04-10T14:23:25;6.78;;;3.08;;
79480;SDS011;68944;48.262;14.208;2023-04-10T14:25:51;6.40;;;3.17;;
79480;SDS011;68944;48.262;14.208;2023-04-10T14:28:16;6.53;;;3.25;;
79480;SDS011;68944;48.262;14.208;2023-04-10T14:30:49;6.55;;;3.33;;
79480;SDS011;68944;48.262;14.208;2023-04-10T14:33:16;6.82;;;3.50;;
79480;SDS011;68944;48.262;14.208;2023-04-10T14:35:44;6.50;;;3.05;;
79480;SDS011;68944;48.262;14.208;2023-04-10T14:38:10;6.25;;;2.90;;
79480;SDS011;68944;48.262;14.208;2023-04-10T14:40:36;7.28;;;3.63;;
79480;SDS011;68944;48.262;14.208;2023-04-10T14:43:04;7.05;;;3.38;;
79480;SDS011;68944;48.262;14.208;2023-04-10T14:45:31;9.98;;;5.72;;
79480;SDS011;68944;48.262;14.208;2023-04-10T14:47:57;9.30;;;4.88;;
79480;SDS011;68944;48.262;14.208;2023-04-10T14:50:22;7.53;;;3.80;;
79480;SDS011;68944;48.262;14.208;2023-04-10T14:52:49;6.85;;;3.35;;
79480;SDS011;68944;48.262;14.208;2023-04-10T14:55:15;6.57;;;3.40;;
79480;SDS011;68944;48.262;14.208;2023-04-10T14:57:41;6.60;;;3.55;;
79480;SDS011;68944;48.262;14.208;2023-04-10T15:00:06;6.90;;;3.33;;
79480;SDS011;68944;48.262;14.208;2023-04-10T15:02:33;7.80;;;3.47;;
79480;SDS011;68944;48.262;14.208;2023-04-10T15:04:58;7.28;;;3.30;;
79480;SDS011;68944;48.262;14.208;2023-04-10T15:07:24;6.70;;;3.50;;
79480;SDS011;68944;48.262;14.208;2023-04-10T15:09:49;8.85;;;3.92;;
79480;SDS011;68944;48.262;14.208;2023-04-10T15:12:15;8.07;;;3.83;;
79480;SDS011;68944;48.262;14.208;2023-04-10T15:14:40;6.90;;;3.33;;